Station: Hartz Mountains  

  Atmospheric Gas Attenuation - ITU Rec 676-11   ----------------- dB/100km -----------------
Date Time Temp RH % AH g/m3 Dew Point Wind Direction Speed kph Gust kph Barometer mB Rainfall Since 9am 24GHz 47GHz 76GHz 122GHz 134GHz 241GHz
08/05 12:30 4.7 98 6.53 4.4 39 56 1013.1 0 15.5 25.1 35.6 93.3 81.0 276.3
08/05 12:20 4.8 98 6.58 4.5 37 46 1013.1 0 15.6 25.1 35.8 93.7 81.6 278.4
08/05 12:10 4.7 97 6.47 4.3 41 52 1013.1 0 15.4 25.0 35.4 92.6 80.2 273.4
08/05 12:00 4.8 97 6.51 4.4 43 59 1013.1 0 15.5 25.0 35.5 92.9 80.6 275.0
08/05 11:50 4.7 97 6.47 4.3 44 52 1013.1 0 15.4 25.0 35.4 92.6 80.2 273.4
08/05 11:40 4.7 96 6.4 4.1 46 63 1013.1 0 15.3 24.9 35.1 91.8 79.2 270.0
08/05 11:30 4.7 96 6.4 4.1 50 69 1013.1 0 15.3 24.9 35.1 91.8 79.2 270.0
08/05 11:20 4.6 96 6.36 4 57 70 1013.1 0 15.2 24.8 35.0 91.5 78.8 268.5
08/05 11:10 4.6 95 6.29 3.9 63 76 1013.1 0 15.0 24.7 34.7 90.7 77.8 265.1
08/05 11:00 4.6 95 6.29 3.9 59 76 1013.1 0 15.0 24.7 34.7 90.7 77.8 265.1
08/05 10:50 4.5 95 6.25 3.8 61 70 1013.1 0 14.9 24.7 34.6 90.4 77.4 263.5
08/05 10:40 4.2 94 6.06 3.3 57 69 1013.1 0 14.5 24.4 33.9 88.6 75.1 255.4
08/05 10:30 4.2 96 6.19 3.6 61 87 1013.1 0 14.8 24.7 34.4 90.1 76.8 261.6
08/05 10:20 4.1 94 6.02 3.2 67 87 1013.1 0 14.5 24.4 33.8 88.3 74.6 253.8
08/05 10:10 4 97 6.17 3.6 54 67 1013.1 0 14.8 24.7 34.4 90.1 76.8 261.4
08/05 10:00 3.7 97 6.05 3.3 57 78 1013.1 0 14.5 24.6 34.1 89.1 75.4 256.6
08/05 09:50 3.8 97 6.09 3.4 54 67 1013.1 0 14.6 24.6 34.2 89.4 75.9 258.2
08/05 09:40 3.9 95 6 3.2 48 63 1013.1 0 14.4 24.4 33.8 88.3 74.5 253.5
08/05 09:30 4 94 5.98 3.1 56 74 1013.1 0 14.4 24.4 33.7 88.0 74.2 252.2
08/05 09:20 3.7 95 5.93 3 59 70 1013.1 0 14.3 24.4 33.6 87.8 73.8 250.8
08/05 09:10 3.6 94 5.82 2.7 59 72 1013.1 0 14.0 24.2 33.2 86.6 72.4 245.9
08/05 09:00 3.4 95 5.81 2.7 69 91 1013.1 0 14.0 24.2 33.2 86.8 72.4 246.0
08/05 08:50 3.3 98 5.95 3 65 76 1013.1 17.8 14.3 24.5 33.8 88.4 74.4 253.1
08/05 08:40 3.4 98 5.99 3.1 63 80 1013.1 17.8 14.4 24.5 34.0 88.8 74.9 254.7
08/05 08:30 3.3 98 5.95 3 63 85 1013.1 17.8 14.3 24.5 33.8 88.4 74.4 253.1
08/05 08:20 3.2 98 5.91 2.9 65 82 1013.1 17.8 14.3 24.5 33.7 88.1 74.0 251.5
08/05 08:10 3 98 5.83 2.7 69 80 1013.1 17.8 14.1 24.4 33.5 87.4 73.1 248.3
08/05 08:00 3.2 98 5.91 2.9 57 74 1013.1 17.8 14.3 24.5 33.7 88.1 74.0 251.5
08/05 07:50 3.1 98 5.87 2.8 56 72 1013.1 17.8 14.2 24.4 33.6 87.8 73.5 249.9
08/05 07:40 2.9 99 5.85 2.8 65 78 1013.1 17.8 14.1 24.4 33.6 87.8 73.4 249.5
08/05 07:30 2.9 99 5.85 2.8 63 83 1013.1 17.6 14.1 24.4 33.6 87.8 73.4 249.5
08/05 07:20 3 99 5.89 2.9 56 72 1013.1 17.6 14.2 24.5 33.7 88.1 73.9 251.1
08/05 07:10 3.2 99 5.97 3.1 48 57 1013.1 17.6 14.4 24.6 34.0 88.8 74.8 254.4
08/05 07:00 3.1 99 5.93 3 43 61 1013.1 17.6 14.3 24.5 33.8 88.4 74.3 252.8
08/05 06:50 3.2 99 5.97 3.1 43 52 1013.1 17.6 14.4 24.6 34.0 88.8 74.8 254.4
08/05 06:40 3.2 99 5.97 3.1 52 63 1013.1 17.4 14.4 24.6 34.0 88.8 74.8 254.4
08/05 06:30 3.2 99 5.97 3.1 52 69 1013.1 17.2 14.4 24.6 34.0 88.8 74.8 254.4
08/05 06:20 3.2 99 5.97 3.1 48 57 1013.1 17.2 14.4 24.6 34.0 88.8 74.8 254.4
08/05 06:10 3.1 99 5.93 3 52 65 1013.1 17.2 14.3 24.5 33.8 88.4 74.3 252.8
08/05 06:00 3.1 99 5.93 3 52 69 1013.1 17.2 14.3 24.5 33.8 88.4 74.3 252.8
08/05 05:50 3.2 99 5.97 3.1 41 48 1013.1 17 14.4 24.6 34.0 88.8 74.8 254.4
08/05 05:40 3.2 99 5.97 3.1 43 50 1013.1 17 14.4 24.6 34.0 88.8 74.8 254.4
08/05 05:30 3.2 99 5.97 3.1 56 76 1013.1 17 14.4 24.6 34.0 88.8 74.8 254.4
08/05 05:20 3.2 99 5.97 3.1 50 59 1013.1 17 14.4 24.6 34.0 88.8 74.8 254.4
08/05 05:10 3.2 99 5.97 3.1 50 63 1013.1 17 14.4 24.6 34.0 88.8 74.8 254.4
08/05 05:00 3.3 99 6.01 3.2 54 76 1013.1 16.8 14.5 24.6 34.1 89.1 75.3 256.0
08/05 04:50 3.4 99 6.05 3.3 44 56 1013.1 16.8 14.6 24.6 34.2 89.4 75.7 257.6
08/05 04:40 3.4 99 6.05 3.3 39 44 1013.1 16.8 14.6 24.6 34.2 89.4 75.7 257.6
08/05 04:30 3.3 99 6.01 3.2 52 76 1013.1 16.8 14.5 24.6 34.1 89.1 75.3 256.0
08/05 04:20 3.2 99 5.97 3.1 54 61 1013.1 16.8 14.4 24.6 34.0 88.8 74.8 254.4
08/05 04:10 3.3 99 6.01 3.2 50 61 1013.1 16.8 14.5 24.6 34.1 89.1 75.3 256.0
08/05 04:00 3.4 99 6.05 3.3 52 74 1013.1 16.6 14.6 24.6 34.2 89.4 75.7 257.6
08/05 03:50 3.4 99 6.05 3.3 56 76 1013.1 16.6 14.6 24.6 34.2 89.4 75.7 257.6
08/05 03:40 3.4 99 6.05 3.3 48 61 1013.1 16.6 14.6 24.6 34.2 89.4 75.7 257.6
08/05 03:30 3.4 99 6.05 3.3 50 70 1013.1 16.6 14.6 24.6 34.2 89.4 75.7 257.6
08/05 03:20 3.4 99 6.05 3.3 44 54 1013.1 16.6 14.6 24.6 34.2 89.4 75.7 257.6
08/05 03:10 3.4 99 6.05 3.3 56 65 1013.1 16.6 14.6 24.6 34.2 89.4 75.7 257.6
08/05 03:00 3.5 99 6.09 3.4 46 69 1013.1 16.6 14.6 24.7 34.3 89.8 76.2 259.2
08/05 02:50 3.4 99 6.05 3.3 44 57 1013.1 16.6 14.6 24.6 34.2 89.4 75.7 257.6
08/05 02:40 3.5 99 6.09 3.4 54 61 1013.1 16.6 14.6 24.7 34.3 89.8 76.2 259.2
08/05 02:30 3.6 99 6.13 3.5 52 69 1013.1 16.4 14.7 24.7 34.5 90.1 76.6 260.8
08/05 02:20 3.6 99 6.13 3.5 50 59 1013.1 16.4 14.7 24.7 34.5 90.1 76.6 260.8
08/05 02:10 3.7 99 6.17 3.6 57 65 1013.1 16.4 14.8 24.8 34.6 90.4 77.1 262.4
08/05 02:00 3.9 99 6.26 3.8 50 72 1013.1 16 15.0 24.9 34.9 91.2 78.1 266.0
08/05 01:50 3.9 99 6.26 3.8 63 72 1013.1 15.8 15.0 24.9 34.9 91.2 78.1 266.0
08/05 01:40 4 99 6.3 3.9 43 54 1013.1 15.8 15.1 24.9 35.0 91.5 78.6 267.6
08/05 01:30 4.2 99 6.38 4.1 44 61 1013.1 15.4 15.2 25.0 35.2 92.2 79.5 270.8
08/05 01:20 4.2 99 6.38 4.1 52 61 1013.1 15.4 15.2 25.0 35.2 92.2 79.5 270.8
08/05 01:10 4.4 99 6.47 4.3 56 67 1013.1 15.2 15.4 25.1 35.5 93.0 80.5 274.5
08/05 01:00 4.7 99 6.6 4.6 48 65 1013.1 15.2 15.7 25.2 35.9 94.0 82.0 279.7
08/05 00:50 4.9 99 6.69 4.8 43 52 1013.1 14.8 15.9 25.3 36.2 94.8 83.0 283.4
08/05 00:40 4.9 99 6.69 4.8 48 57 1013.1 14.8 15.9 25.3 36.2 94.8 83.0 283.4
08/05 00:30 4.8 99 6.64 4.7 44 61 1013.1 14.6 15.8 25.2 36.1 94.4 82.4 281.3
08/05 00:20 4.8 99 6.64 4.7 43 50 1013.1 14.4 15.8 25.2 36.1 94.4 82.4 281.3
08/05 00:10 4.7 99 6.6 4.6 46 56 1013.1 14.4 15.7 25.2 35.9 94.0 82.0 279.7
08/05 00:00 4.8 99 6.64 4.7 43 57 1013.1 14.2 15.8 25.2 36.1 94.4 82.4 281.3
07/05 23:50 4.9 99 6.69 4.8 48 56 1013.1 14.2 15.9 25.3 36.2 94.8 83.0 283.4
07/05 23:40 4.8 99 6.64 4.7 44 54 1013.1 14 15.8 25.2 36.1 94.4 82.4 281.3
07/05 23:30 4.8 99 6.64 4.7 46 69 1013.1 14 15.8 25.2 36.1 94.4 82.4 281.3
07/05 23:20 4.8 99 6.64 4.7 44 52 1013.1 14 15.8 25.2 36.1 94.4 82.4 281.3
07/05 23:10 4.9 99 6.69 4.8 50 65 1013.1 14 15.9 25.3 36.2 94.8 83.0 283.4
07/05 23:00 5 99 6.73 4.9 50 67 1013.1 13.8 16.0 25.3 36.3 95.1 83.5 284.9
07/05 22:50 4.9 99 6.69 4.8 50 67 1013.1 13.8 15.9 25.3 36.2 94.8 83.0 283.4
07/05 22:40 4.9 99 6.69 4.8 54 65 1013.1 13.8 15.9 25.3 36.2 94.8 83.0 283.4
07/05 22:30 5.2 99 6.82 5.1 52 82 1013.1 13.8 16.1 25.4 36.6 95.9 84.5 288.6
07/05 22:20 5.5 99 6.96 5.4 50 59 1013.1 13.8 16.4 25.6 37.1 97.1 86.1 294.3
07/05 22:10 5.5 99 6.96 5.4 57 65 1013.1 13.8 16.4 25.6 37.1 97.1 86.1 294.3
07/05 22:00 5.5 99 6.96 5.4 48 69 1013.1 13.6 16.4 25.6 37.1 97.1 86.1 294.3
07/05 21:50 5.5 99 6.96 5.4 54 70 1013.1 13.4 16.4 25.6 37.1 97.1 86.1 294.3
07/05 21:40 5.5 99 6.96 5.4 50 69 1013.1 13.4 16.4 25.6 37.1 97.1 86.1 294.3
07/05 21:30 5.6 99 7 5.5 46 72 1013.1 13.2 16.5 25.6 37.2 97.4 86.5 295.8
07/05 21:20 5.5 99 6.96 5.4 46 57 1013.1 12.8 16.4 25.6 37.1 97.1 86.1 294.3
07/05 21:10 5.5 99 6.96 5.4 44 52 1013.1 12.6 16.4 25.6 37.1 97.1 86.1 294.3
07/05 21:00 5.6 99 7 5.5 41 65 1013.1 12.2 16.5 25.6 37.2 97.4 86.5 295.8
07/05 20:50 5.3 99 6.87 5.2 37 43 1013.1 11.6 16.3 25.5 36.8 96.3 85.1 290.6
07/05 20:40 5.3 99 6.87 5.2 44 54 1013.1 11.4 16.3 25.5 36.8 96.3 85.1 290.6
07/05 20:30 5.1 99 6.78 5 41 59 1013.1 10.8 16.1 25.4 36.5 95.6 84.0 287.0
07/05 20:20 5.1 99 6.78 5 41 61 1013.1 10.6 16.1 25.4 36.5 95.6 84.0 287.0
07/05 20:10 4.7 99 6.6 4.6 26 32 1013.1 10.4 15.7 25.2 35.9 94.0 82.0 279.7
07/05 20:00 4.4 99 6.47 4.3 33 57 1013.1 10 15.4 25.1 35.5 93.0 80.5 274.5

Last Refresh: 08-May-2026 12:07:19

Bureau of Meteorology